sensor_id;sensor_type;location;lat;lon;timestamp;P1;durP1;ratioP1;P2;durP2;ratioP2
1725;SDS011;41776;48.260;8.928;2023-05-07T00:01:32;10.65;;;2.70;;
1725;SDS011;41776;48.260;8.928;2023-05-07T00:03:59;5.20;;;2.75;;
1725;SDS011;41776;48.260;8.928;2023-05-07T00:06:26;4.30;;;2.85;;
1725;SDS011;41776;48.260;8.928;2023-05-07T00:08:53;4.28;;;2.67;;
1725;SDS011;41776;48.260;8.928;2023-05-07T00:11:20;4.18;;;2.60;;
1725;SDS011;41776;48.260;8.928;2023-05-07T00:13:47;6.15;;;2.70;;
1725;SDS011;41776;48.260;8.928;2023-05-07T00:16:13;6.33;;;3.30;;
1725;SDS011;41776;48.260;8.928;2023-05-07T00:18:40;7.13;;;2.95;;
1725;SDS011;41776;48.260;8.928;2023-05-07T00:21:08;5.00;;;2.33;;
1725;SDS011;41776;48.260;8.928;2023-05-07T00:23:34;5.13;;;2.90;;
1725;SDS011;41776;48.260;8.928;2023-05-07T00:26:01;6.20;;;2.75;;
1725;SDS011;41776;48.260;8.928;2023-05-07T00:28:27;4.63;;;2.70;;
1725;SDS011;41776;48.260;8.928;2023-05-07T00:30:54;5.13;;;2.78;;
1725;SDS011;41776;48.260;8.928;2023-05-07T00:33:20;5.32;;;2.65;;
1725;SDS011;41776;48.260;8.928;2023-05-07T00:35:47;9.15;;;2.92;;
1725;SDS011;41776;48.260;8.928;2023-05-07T00:38:15;4.50;;;2.30;;
1725;SDS011;41776;48.260;8.928;2023-05-07T00:40:41;7.40;;;2.28;;
1725;SDS011;41776;48.260;8.928;2023-05-07T00:43:08;3.88;;;2.20;;
1725;SDS011;41776;48.260;8.928;2023-05-07T00:45:34;4.95;;;2.15;;
1725;SDS011;41776;48.260;8.928;2023-05-07T00:48:01;3.38;;;2.47;;
1725;SDS011;41776;48.260;8.928;2023-05-07T00:50:28;5.70;;;2.70;;
1725;SDS011;41776;48.260;8.928;2023-05-07T00:52:56;5.03;;;2.40;;
1725;SDS011;41776;48.260;8.928;2023-05-07T00:55:24;3.40;;;2.45;;
1725;SDS011;41776;48.260;8.928;2023-05-07T00:57:50;6.10;;;2.47;;
1725;SDS011;41776;48.260;8.928;2023-05-07T01:00:17;4.80;;;2.53;;
1725;SDS011;41776;48.260;8.928;2023-05-07T01:02:45;4.55;;;2.40;;
1725;SDS011;41776;48.260;8.928;2023-05-07T01:05:12;4.40;;;2.20;;
1725;SDS011;41776;48.260;8.928;2023-05-07T01:07:40;3.42;;;2.13;;
1725;SDS011;41776;48.260;8.928;2023-05-07T01:10:08;5.80;;;2.40;;
1725;SDS011;41776;48.260;8.928;2023-05-07T01:12:37;3.77;;;2.63;;
1725;SDS011;41776;48.260;8.928;2023-05-07T01:15:06;5.38;;;2.38;;
1725;SDS011;41776;48.260;8.928;2023-05-07T01:17:34;2.87;;;2.30;;
1725;SDS011;41776;48.260;8.928;2023-05-07T01:20:01;3.97;;;2.63;;
1725;SDS011;41776;48.260;8.928;2023-05-07T01:22:31;3.67;;;2.30;;
1725;SDS011;41776;48.260;8.928;2023-05-07T01:24:58;3.45;;;2.17;;
1725;SDS011;41776;48.260;8.928;2023-05-07T01:27:26;5.30;;;2.15;;
1725;SDS011;41776;48.260;8.928;2023-05-07T01:29:53;4.83;;;2.40;;
1725;SDS011;41776;48.260;8.928;2023-05-07T01:32:21;6.70;;;2.60;;
1725;SDS011;41776;48.260;8.928;2023-05-07T01:34:53;3.00;;;2.22;;
1725;SDS011;41776;48.260;8.928;2023-05-07T01:37:21;5.13;;;2.70;;
1725;SDS011;41776;48.260;8.928;2023-05-07T01:39:49;4.93;;;2.80;;
1725;SDS011;41776;48.260;8.928;2023-05-07T01:42:16;4.30;;;2.53;;
1725;SDS011;41776;48.260;8.928;2023-05-07T01:44:43;3.83;;;2.38;;
1725;SDS011;41776;48.260;8.928;2023-05-07T01:47:09;6.03;;;2.20;;
1725;SDS011;41776;48.260;8.928;2023-05-07T01:49:36;4.40;;;2.63;;
1725;SDS011;41776;48.260;8.928;2023-05-07T01:52:03;3.53;;;2.33;;
1725;SDS011;41776;48.260;8.928;2023-05-07T01:54:30;7.00;;;2.80;;
1725;SDS011;41776;48.260;8.928;2023-05-07T02:00:20;8.02;;;2.47;;
1725;SDS011;41776;48.260;8.928;2023-05-07T02:02:47;6.43;;;2.53;;
1725;SDS011;41776;48.260;8.928;2023-05-07T02:05:14;4.70;;;2.13;;
1725;SDS011;41776;48.260;8.928;2023-05-07T02:07:40;4.17;;;2.90;;
1725;SDS011;41776;48.260;8.928;2023-05-07T02:10:07;5.27;;;3.07;;
1725;SDS011;41776;48.260;8.928;2023-05-07T02:12:33;6.43;;;2.77;;
1725;SDS011;41776;48.260;8.928;2023-05-07T02:15:00;3.83;;;3.20;;
1725;SDS011;41776;48.260;8.928;2023-05-07T02:17:28;5.40;;;3.07;;
1725;SDS011;41776;48.260;8.928;2023-05-07T02:19:56;7.90;;;3.30;;
1725;SDS011;41776;48.260;8.928;2023-05-07T02:22:23;6.10;;;2.97;;
1725;SDS011;41776;48.260;8.928;2023-05-07T02:24:50;5.13;;;3.00;;
1725;SDS011;41776;48.260;8.928;2023-05-07T02:27:16;7.97;;;3.20;;
1725;SDS011;41776;48.260;8.928;2023-05-07T02:29:43;3.93;;;2.60;;
1725;SDS011;41776;48.260;8.928;2023-05-07T02:32:09;5.77;;;2.70;;
1725;SDS011;41776;48.260;8.928;2023-05-07T02:34:37;3.10;;;2.50;;
1725;SDS011;41776;48.260;8.928;2023-05-07T02:37:03;8.07;;;3.03;;
1725;SDS011;41776;48.260;8.928;2023-05-07T02:39:30;5.60;;;2.77;;
1725;SDS011;41776;48.260;8.928;2023-05-07T02:41:56;4.73;;;2.87;;
1725;SDS011;41776;48.260;8.928;2023-05-07T02:44:22;5.30;;;3.10;;
1725;SDS011;41776;48.260;8.928;2023-05-07T02:46:49;7.50;;;3.95;;
1725;SDS011;41776;48.260;8.928;2023-05-07T02:49:15;4.43;;;3.10;;
1725;SDS011;41776;48.260;8.928;2023-05-07T02:51:43;5.57;;;3.20;;
1725;SDS011;41776;48.260;8.928;2023-05-07T02:54:09;6.73;;;3.27;;
1725;SDS011;41776;48.260;8.928;2023-05-07T02:56:36;4.33;;;3.47;;
1725;SDS011;41776;48.260;8.928;2023-05-07T02:59:02;7.33;;;3.67;;
1725;SDS011;41776;48.260;8.928;2023-05-07T03:01:29;7.37;;;3.60;;
1725;SDS011;41776;48.260;8.928;2023-05-07T03:03:55;7.00;;;3.93;;
1725;SDS011;41776;48.260;8.928;2023-05-07T03:06:22;7.50;;;3.60;;
1725;SDS011;41776;48.260;8.928;2023-05-07T03:08:49;10.17;;;3.80;;
1725;SDS011;41776;48.260;8.928;2023-05-07T03:11:16;6.73;;;3.60;;
1725;SDS011;41776;48.260;8.928;2023-05-07T03:13:42;6.13;;;3.80;;
1725;SDS011;41776;48.260;8.928;2023-05-07T03:16:09;5.63;;;3.63;;
1725;SDS011;41776;48.260;8.928;2023-05-07T03:18:35;5.53;;;3.50;;
1725;SDS011;41776;48.260;8.928;2023-05-07T03:21:02;5.63;;;3.83;;
1725;SDS011;41776;48.260;8.928;2023-05-07T03:23:28;7.40;;;4.37;;
1725;SDS011;41776;48.260;8.928;2023-05-07T03:25:56;9.63;;;4.47;;
1725;SDS011;41776;48.260;8.928;2023-05-07T03:28:22;7.90;;;4.43;;
1725;SDS011;41776;48.260;8.928;2023-05-07T03:30:49;6.13;;;4.43;;
1725;SDS011;41776;48.260;8.928;2023-05-07T03:33:15;6.03;;;4.30;;
1725;SDS011;41776;48.260;8.928;2023-05-07T03:35:42;6.13;;;4.30;;
1725;SDS011;41776;48.260;8.928;2023-05-07T03:38:08;5.80;;;4.60;;
1725;SDS011;41776;48.260;8.928;2023-05-07T03:40:35;8.53;;;4.90;;
1725;SDS011;41776;48.260;8.928;2023-05-07T03:43:02;8.37;;;4.70;;
1725;SDS011;41776;48.260;8.928;2023-05-07T03:45:29;8.60;;;4.43;;
1725;SDS011;41776;48.260;8.928;2023-05-07T03:47:55;8.30;;;4.70;;
1725;SDS011;41776;48.260;8.928;2023-05-07T03:50:22;8.53;;;5.07;;
1725;SDS011;41776;48.260;8.928;2023-05-07T03:52:48;8.93;;;4.70;;
1725;SDS011;41776;48.260;8.928;2023-05-07T03:55:15;9.83;;;5.17;;
1725;SDS011;41776;48.260;8.928;2023-05-07T03:57:41;11.40;;;4.73;;
1725;SDS011;41776;48.260;8.928;2023-05-07T04:00:09;11.07;;;5.60;;
1725;SDS011;41776;48.260;8.928;2023-05-07T04:02:37;8.63;;;5.80;;
1725;SDS011;41776;48.260;8.928;2023-05-07T04:05:03;8.37;;;4.73;;
1725;SDS011;41776;48.260;8.928;2023-05-07T04:07:30;9.87;;;4.73;;
1725;SDS011;41776;48.260;8.928;2023-05-07T04:09:56;9.17;;;5.07;;
1725;SDS011;41776;48.260;8.928;2023-05-07T04:12:23;5.93;;;4.83;;
1725;SDS011;41776;48.260;8.928;2023-05-07T04:14:49;9.70;;;4.90;;
1725;SDS011;41776;48.260;8.928;2023-05-07T04:17:17;19.50;;;6.10;;
1725;SDS011;41776;48.260;8.928;2023-05-07T04:19:43;10.57;;;5.13;;
1725;SDS011;41776;48.260;8.928;2023-05-07T04:22:10;8.80;;;5.13;;
1725;SDS011;41776;48.260;8.928;2023-05-07T04:24:36;10.13;;;5.03;;
1725;SDS011;41776;48.260;8.928;2023-05-07T04:27:03;9.90;;;5.20;;
1725;SDS011;41776;48.260;8.928;2023-05-07T04:29:29;6.87;;;4.57;;
1725;SDS011;41776;48.260;8.928;2023-05-07T04:31:56;7.10;;;4.70;;
1725;SDS011;41776;48.260;8.928;2023-05-07T04:34:25;9.27;;;4.60;;
1725;SDS011;41776;48.260;8.928;2023-05-07T04:36:51;6.53;;;4.43;;
1725;SDS011;41776;48.260;8.928;2023-05-07T04:39:18;8.17;;;5.13;;
1725;SDS011;41776;48.260;8.928;2023-05-07T04:41:44;6.27;;;4.60;;
1725;SDS011;41776;48.260;8.928;2023-05-07T04:44:10;9.67;;;5.30;;
1725;SDS011;41776;48.260;8.928;2023-05-07T04:46:37;8.77;;;4.80;;
1725;SDS011;41776;48.260;8.928;2023-05-07T04:49:03;10.57;;;5.53;;
1725;SDS011;41776;48.260;8.928;2023-05-07T04:51:32;8.13;;;4.67;;
1725;SDS011;41776;48.260;8.928;2023-05-07T04:53:58;6.53;;;4.20;;
1725;SDS011;41776;48.260;8.928;2023-05-07T04:56:27;6.70;;;4.47;;
1725;SDS011;41776;48.260;8.928;2023-05-07T04:58:53;6.87;;;4.57;;
1725;SDS011;41776;48.260;8.928;2023-05-07T05:01:20;8.50;;;4.50;;
1725;SDS011;41776;48.260;8.928;2023-05-07T05:03:46;10.77;;;5.03;;
1725;SDS011;41776;48.260;8.928;2023-05-07T05:06:13;7.60;;;4.53;;
1725;SDS011;41776;48.260;8.928;2023-05-07T05:08:41;7.23;;;4.20;;
1725;SDS011;41776;48.260;8.928;2023-05-07T05:11:07;4.93;;;3.93;;
1725;SDS011;41776;48.260;8.928;2023-05-07T05:13:34;5.43;;;3.10;;
1725;SDS011;41776;48.260;8.928;2023-05-07T05:16:00;5.60;;;3.97;;
1725;SDS011;41776;48.260;8.928;2023-05-07T05:18:26;7.23;;;3.77;;
1725;SDS011;41776;48.260;8.928;2023-05-07T05:20:53;4.03;;;3.17;;
1725;SDS011;41776;48.260;8.928;2023-05-07T05:23:19;4.97;;;3.50;;
1725;SDS011;41776;48.260;8.928;2023-05-07T05:25:47;5.33;;;3.30;;
1725;SDS011;41776;48.260;8.928;2023-05-07T05:28:14;7.23;;;3.20;;
1725;SDS011;41776;48.260;8.928;2023-05-07T05:30:40;4.13;;;3.35;;
1725;SDS011;41776;48.260;8.928;2023-05-07T05:33:06;5.18;;;3.05;;
1725;SDS011;41776;48.260;8.928;2023-05-07T05:35:33;4.53;;;3.20;;
1725;SDS011;41776;48.260;8.928;2023-05-07T05:38:00;4.25;;;3.00;;
1725;SDS011;41776;48.260;8.928;2023-05-07T05:40:26;4.47;;;2.67;;
1725;SDS011;41776;48.260;8.928;2023-05-07T05:42:55;4.18;;;2.70;;
1725;SDS011;41776;48.260;8.928;2023-05-07T05:45:21;6.57;;;2.90;;
1725;SDS011;41776;48.260;8.928;2023-05-07T05:47:47;4.93;;;2.53;;
1725;SDS011;41776;48.260;8.928;2023-05-07T05:50:14;5.25;;;2.70;;
1725;SDS011;41776;48.260;8.928;2023-05-07T05:52:41;4.72;;;2.63;;
1725;SDS011;41776;48.260;8.928;2023-05-07T05:55:07;2.75;;;1.92;;
1725;SDS011;41776;48.260;8.928;2023-05-07T05:57:34;3.47;;;2.00;;
1725;SDS011;41776;48.260;8.928;2023-05-07T06:00:03;4.38;;;2.00;;
1725;SDS011;41776;48.260;8.928;2023-05-07T06:02:30;3.25;;;1.83;;
1725;SDS011;41776;48.260;8.928;2023-05-07T06:04:57;2.25;;;1.75;;
1725;SDS011;41776;48.260;8.928;2023-05-07T06:07:23;5.72;;;1.83;;
1725;SDS011;41776;48.260;8.928;2023-05-07T06:09:49;4.57;;;1.80;;
1725;SDS011;41776;48.260;8.928;2023-05-07T06:12:16;2.97;;;1.90;;
1725;SDS011;41776;48.260;8.928;2023-05-07T06:14:42;2.53;;;1.67;;
1725;SDS011;41776;48.260;8.928;2023-05-07T06:17:10;3.10;;;1.77;;
1725;SDS011;41776;48.260;8.928;2023-05-07T06:19:37;3.63;;;2.10;;
1725;SDS011;41776;48.260;8.928;2023-05-07T06:22:03;1.70;;;1.45;;
1725;SDS011;41776;48.260;8.928;2023-05-07T06:24:29;2.72;;;1.42;;
1725;SDS011;41776;48.260;8.928;2023-05-07T06:26:56;5.95;;;1.70;;
1725;SDS011;41776;48.260;8.928;2023-05-07T06:29:23;2.22;;;1.38;;
1725;SDS011;41776;48.260;8.928;2023-05-07T06:31:50;1.65;;;1.40;;
1725;SDS011;41776;48.260;8.928;2023-05-07T06:34:18;2.70;;;1.40;;
1725;SDS011;41776;48.260;8.928;2023-05-07T06:36:45;3.92;;;1.58;;
1725;SDS011;41776;48.260;8.928;2023-05-07T06:39:11;3.13;;;1.38;;
1725;SDS011;41776;48.260;8.928;2023-05-07T06:41:38;7.53;;;1.40;;
1725;SDS011;41776;48.260;8.928;2023-05-07T06:44:04;1.95;;;1.27;;
1725;SDS011;41776;48.260;8.928;2023-05-07T06:46:31;2.67;;;1.70;;
1725;SDS011;41776;48.260;8.928;2023-05-07T06:48:57;2.47;;;1.65;;
1725;SDS011;41776;48.260;8.928;2023-05-07T06:51:25;2.47;;;1.58;;
1725;SDS011;41776;48.260;8.928;2023-05-07T06:53:51;2.72;;;1.85;;
1725;SDS011;41776;48.260;8.928;2023-05-07T06:56:18;3.60;;;1.52;;
1725;SDS011;41776;48.260;8.928;2023-05-07T06:58:45;3.33;;;1.63;;
1725;SDS011;41776;48.260;8.928;2023-05-07T07:01:11;2.53;;;1.50;;
1725;SDS011;41776;48.260;8.928;2023-05-07T07:03:37;2.97;;;1.70;;
1725;SDS011;41776;48.260;8.928;2023-05-07T07:06:04;3.15;;;1.60;;
1725;SDS011;41776;48.260;8.928;2023-05-07T07:08:32;3.80;;;1.90;;
1725;SDS011;41776;48.260;8.928;2023-05-07T07:10:59;3.28;;;1.90;;
1725;SDS011;41776;48.260;8.928;2023-05-07T07:13:25;4.25;;;1.80;;
1725;SDS011;41776;48.260;8.928;2023-05-07T07:15:52;3.45;;;1.70;;
1725;SDS011;41776;48.260;8.928;2023-05-07T07:18:18;4.40;;;2.03;;
1725;SDS011;41776;48.260;8.928;2023-05-07T07:20:45;3.03;;;1.90;;
1725;SDS011;41776;48.260;8.928;2023-05-07T07:23:11;5.60;;;2.10;;
1725;SDS011;41776;48.260;8.928;2023-05-07T07:25:39;5.03;;;2.30;;
1725;SDS011;41776;48.260;8.928;2023-05-07T07:28:06;3.45;;;2.25;;
1725;SDS011;41776;48.260;8.928;2023-05-07T07:30:32;3.38;;;2.25;;
1725;SDS011;41776;48.260;8.928;2023-05-07T07:32:59;5.32;;;2.10;;
1725;SDS011;41776;48.260;8.928;2023-05-07T07:35:27;5.80;;;2.33;;
1725;SDS011;41776;48.260;8.928;2023-05-07T07:37:53;4.63;;;2.20;;
1725;SDS011;41776;48.260;8.928;2023-05-07T07:40:20;4.97;;;2.22;;
1725;SDS011;41776;48.260;8.928;2023-05-07T07:42:48;5.03;;;2.03;;
1725;SDS011;41776;48.260;8.928;2023-05-07T07:45:14;4.32;;;2.10;;
1725;SDS011;41776;48.260;8.928;2023-05-07T07:47:41;3.83;;;2.30;;
1725;SDS011;41776;48.260;8.928;2023-05-07T07:50:07;3.40;;;1.92;;
1725;SDS011;41776;48.260;8.928;2023-05-07T07:52:34;4.45;;;1.98;;
1725;SDS011;41776;48.260;8.928;2023-05-07T07:55:01;3.45;;;2.15;;
1725;SDS011;41776;48.260;8.928;2023-05-07T07:57:28;2.72;;;1.95;;
1725;SDS011;41776;48.260;8.928;2023-05-07T07:59:56;4.03;;;2.00;;
1725;SDS011;41776;48.260;8.928;2023-05-07T08:02:22;5.47;;;1.90;;
1725;SDS011;41776;48.260;8.928;2023-05-07T08:04:49;3.83;;;1.80;;
1725;SDS011;41776;48.260;8.928;2023-05-07T08:07:17;4.68;;;1.92;;
1725;SDS011;41776;48.260;8.928;2023-05-07T08:09:47;4.57;;;2.20;;
1725;SDS011;41776;48.260;8.928;2023-05-07T08:12:14;3.55;;;2.20;;
1725;SDS011;41776;48.260;8.928;2023-05-07T08:14:42;5.75;;;2.38;;
1725;SDS011;41776;48.260;8.928;2023-05-07T08:17:11;5.43;;;1.80;;
1725;SDS011;41776;48.260;8.928;2023-05-07T08:19:44;4.20;;;1.98;;
1725;SDS011;41776;48.260;8.928;2023-05-07T08:22:16;5.28;;;2.03;;
1725;SDS011;41776;48.260;8.928;2023-05-07T08:24:43;5.07;;;2.47;;
1725;SDS011;41776;48.260;8.928;2023-05-07T08:27:10;3.78;;;2.30;;
1725;SDS011;41776;48.260;8.928;2023-05-07T08:29:36;3.95;;;1.95;;
1725;SDS011;41776;48.260;8.928;2023-05-07T08:32:03;6.88;;;1.90;;
1725;SDS011;41776;48.260;8.928;2023-05-07T08:34:34;3.47;;;2.20;;
1725;SDS011;41776;48.260;8.928;2023-05-07T08:37:03;4.25;;;2.17;;
1725;SDS011;41776;48.260;8.928;2023-05-07T08:39:34;4.15;;;2.15;;
1725;SDS011;41776;48.260;8.928;2023-05-07T08:42:01;3.15;;;2.00;;
1725;SDS011;41776;48.260;8.928;2023-05-07T08:44:33;5.93;;;2.10;;
1725;SDS011;41776;48.260;8.928;2023-05-07T08:47:01;5.28;;;2.10;;
1725;SDS011;41776;48.260;8.928;2023-05-07T08:49:34;3.10;;;2.05;;
1725;SDS011;41776;48.260;8.928;2023-05-07T08:52:01;2.38;;;1.70;;
1725;SDS011;41776;48.260;8.928;2023-05-07T08:54:28;4.22;;;1.98;;
1725;SDS011;41776;48.260;8.928;2023-05-07T08:56:58;4.18;;;1.90;;
1725;SDS011;41776;48.260;8.928;2023-05-07T08:59:26;4.28;;;1.67;;
1725;SDS011;41776;48.260;8.928;2023-05-07T09:01:55;2.42;;;1.60;;
1725;SDS011;41776;48.260;8.928;2023-05-07T09:04:21;3.20;;;1.67;;
1725;SDS011;41776;48.260;8.928;2023-05-07T09:06:52;4.18;;;1.67;;
1725;SDS011;41776;48.260;8.928;2023-05-07T09:09:21;2.70;;;1.60;;
1725;SDS011;41776;48.260;8.928;2023-05-07T09:11:56;3.50;;;1.58;;
1725;SDS011;41776;48.260;8.928;2023-05-07T09:14:23;3.75;;;2.15;;
1725;SDS011;41776;48.260;8.928;2023-05-07T09:16:51;3.17;;;2.03;;
1725;SDS011;41776;48.260;8.928;2023-05-07T09:19:21;3.58;;;1.98;;
1725;SDS011;41776;48.260;8.928;2023-05-07T09:21:49;4.35;;;2.20;;
1725;SDS011;41776;48.260;8.928;2023-05-07T09:24:17;2.70;;;1.98;;
1725;SDS011;41776;48.260;8.928;2023-05-07T09:26:46;3.72;;;2.15;;
1725;SDS011;41776;48.260;8.928;2023-05-07T09:29:13;5.88;;;1.98;;
1725;SDS011;41776;48.260;8.928;2023-05-07T09:31:42;3.50;;;1.80;;
1725;SDS011;41776;48.260;8.928;2023-05-07T09:34:11;6.72;;;2.15;;
1725;SDS011;41776;48.260;8.928;2023-05-07T09:36:42;3.28;;;1.60;;
1725;SDS011;41776;48.260;8.928;2023-05-07T09:39:11;2.25;;;1.70;;
1725;SDS011;41776;48.260;8.928;2023-05-07T09:41:44;3.13;;;1.73;;
1725;SDS011;41776;48.260;8.928;2023-05-07T09:44:12;3.80;;;2.00;;
1725;SDS011;41776;48.260;8.928;2023-05-07T09:46:38;4.47;;;1.40;;
1725;SDS011;41776;48.260;8.928;2023-05-07T09:49:07;2.47;;;1.70;;
1725;SDS011;41776;48.260;8.928;2023-05-07T09:51:45;2.45;;;1.90;;
1725;SDS011;41776;48.260;8.928;2023-05-07T09:54:16;4.65;;;2.30;;
1725;SDS011;41776;48.260;8.928;2023-05-07T09:56:44;3.05;;;1.80;;
1725;SDS011;41776;48.260;8.928;2023-05-07T09:59:14;3.22;;;1.70;;
1725;SDS011;41776;48.260;8.928;2023-05-07T10:01:42;3.22;;;1.88;;
1725;SDS011;41776;48.260;8.928;2023-05-07T10:04:12;6.40;;;1.92;;
1725;SDS011;41776;48.260;8.928;2023-05-07T10:06:38;3.00;;;2.17;;
1725;SDS011;41776;48.260;8.928;2023-05-07T10:09:08;2.72;;;1.52;;
1725;SDS011;41776;48.260;8.928;2023-05-07T10:11:37;4.55;;;1.77;;
1725;SDS011;41776;48.260;8.928;2023-05-07T10:14:04;6.20;;;1.88;;
1725;SDS011;41776;48.260;8.928;2023-05-07T10:16:32;4.97;;;1.98;;
1725;SDS011;41776;48.260;8.928;2023-05-07T10:19:02;6.57;;;2.65;;
1725;SDS011;41776;48.260;8.928;2023-05-07T10:21:28;9.25;;;3.00;;
1725;SDS011;41776;48.260;8.928;2023-05-07T10:23:57;11.32;;;2.80;;
1725;SDS011;41776;48.260;8.928;2023-05-07T10:26:25;24.02;;;5.35;;
1725;SDS011;41776;48.260;8.928;2023-05-07T10:28:56;9.38;;;3.85;;
1725;SDS011;41776;48.260;8.928;2023-05-07T10:31:37;9.88;;;3.58;;
1725;SDS011;41776;48.260;8.928;2023-05-07T10:34:16;10.75;;;4.28;;
1725;SDS011;41776;48.260;8.928;2023-05-07T10:36:47;10.23;;;3.72;;
1725;SDS011;41776;48.260;8.928;2023-05-07T10:39:15;13.38;;;4.25;;
1725;SDS011;41776;48.260;8.928;2023-05-07T10:41:41;8.75;;;3.50;;
1725;SDS011;41776;48.260;8.928;2023-05-07T10:44:08;10.73;;;3.25;;
1725;SDS011;41776;48.260;8.928;2023-05-07T10:46:36;5.97;;;2.30;;
1725;SDS011;41776;48.260;8.928;2023-05-07T10:49:09;9.80;;;2.88;;
1725;SDS011;41776;48.260;8.928;2023-05-07T10:51:39;8.25;;;2.85;;
1725;SDS011;41776;48.260;8.928;2023-05-07T10:54:22;11.55;;;2.70;;
1725;SDS011;41776;48.260;8.928;2023-05-07T10:56:49;8.73;;;3.20;;
1725;SDS011;41776;48.260;8.928;2023-05-07T10:59:35;11.15;;;4.05;;
1725;SDS011;41776;48.260;8.928;2023-05-07T11:02:10;10.48;;;3.65;;
1725;SDS011;41776;48.260;8.928;2023-05-07T11:04:39;8.13;;;3.10;;
1725;SDS011;41776;48.260;8.928;2023-05-07T11:09:57;11.05;;;3.38;;
1725;SDS011;41776;48.260;8.928;2023-05-07T11:15:33;7.53;;;3.42;;
1725;SDS011;41776;48.260;8.928;2023-05-07T11:18:02;7.82;;;2.78;;
1725;SDS011;41776;48.260;8.928;2023-05-07T11:20:49;13.27;;;3.30;;
1725;SDS011;41776;48.260;8.928;2023-05-07T11:26:17;15.25;;;3.72;;
1725;SDS011;41776;48.260;8.928;2023-05-07T11:28:43;15.57;;;3.90;;
1725;SDS011;41776;48.260;8.928;2023-05-07T11:31:10;15.32;;;3.67;;
1725;SDS011;41776;48.260;8.928;2023-05-07T11:33:38;8.35;;;3.90;;
1725;SDS011;41776;48.260;8.928;2023-05-07T11:36:05;9.05;;;3.85;;
1725;SDS011;41776;48.260;8.928;2023-05-07T11:38:34;13.38;;;4.78;;
1725;SDS011;41776;48.260;8.928;2023-05-07T11:41:02;11.05;;;4.63;;
1725;SDS011;41776;48.260;8.928;2023-05-07T11:43:30;9.52;;;4.03;;
1725;SDS011;41776;48.260;8.928;2023-05-07T11:46:04;12.90;;;4.40;;
1725;SDS011;41776;48.260;8.928;2023-05-07T11:48:32;12.23;;;4.80;;
1725;SDS011;41776;48.260;8.928;2023-05-07T11:51:01;7.53;;;4.32;;
1725;SDS011;41776;48.260;8.928;2023-05-07T11:53:34;10.32;;;5.07;;
1725;SDS011;41776;48.260;8.928;2023-05-07T11:56:05;9.48;;;5.03;;
1725;SDS011;41776;48.260;8.928;2023-05-07T11:58:33;13.02;;;5.35;;
1725;SDS011;41776;48.260;8.928;2023-05-07T12:00:59;16.08;;;5.80;;
1725;SDS011;41776;48.260;8.928;2023-05-07T12:03:26;13.25;;;7.38;;
1725;SDS011;41776;48.260;8.928;2023-05-07T12:05:52;14.20;;;7.20;;
1725;SDS011;41776;48.260;8.928;2023-05-07T12:08:20;9.45;;;4.15;;
1725;SDS011;41776;48.260;8.928;2023-05-07T12:10:48;10.00;;;4.25;;
1725;SDS011;41776;48.260;8.928;2023-05-07T12:13:16;10.48;;;4.45;;
1725;SDS011;41776;48.260;8.928;2023-05-07T12:15:42;12.10;;;4.53;;
1725;SDS011;41776;48.260;8.928;2023-05-07T12:18:09;11.95;;;4.70;;
1725;SDS011;41776;48.260;8.928;2023-05-07T12:20:36;12.60;;;4.88;;
1725;SDS011;41776;48.260;8.928;2023-05-07T12:23:03;12.57;;;5.63;;
1725;SDS011;41776;48.260;8.928;2023-05-07T12:25:31;11.35;;;5.72;;
1725;SDS011;41776;48.260;8.928;2023-05-07T12:28:00;13.68;;;5.47;;
1725;SDS011;41776;48.260;8.928;2023-05-07T12:30:27;13.00;;;5.25;;
1725;SDS011;41776;48.260;8.928;2023-05-07T12:32:54;13.27;;;4.93;;
1725;SDS011;41776;48.260;8.928;2023-05-07T12:35:26;10.00;;;4.45;;
1725;SDS011;41776;48.260;8.928;2023-05-07T12:37:56;8.98;;;4.60;;
1725;SDS011;41776;48.260;8.928;2023-05-07T12:40:24;10.85;;;4.80;;
1725;SDS011;41776;48.260;8.928;2023-05-07T12:43:02;7.70;;;4.97;;
1725;SDS011;41776;48.260;8.928;2023-05-07T12:45:29;12.02;;;5.43;;
1725;SDS011;41776;48.260;8.928;2023-05-07T12:47:57;9.55;;;4.43;;
1725;SDS011;41776;48.260;8.928;2023-05-07T12:50:30;10.02;;;3.80;;
1725;SDS011;41776;48.260;8.928;2023-05-07T12:52:57;5.90;;;2.40;;
1725;SDS011;41776;48.260;8.928;2023-05-07T12:55:24;7.22;;;2.60;;
1725;SDS011;41776;48.260;8.928;2023-05-07T12:57:51;5.43;;;2.63;;
1725;SDS011;41776;48.260;8.928;2023-05-07T13:00:33;7.55;;;2.97;;
1725;SDS011;41776;48.260;8.928;2023-05-07T13:03:00;9.05;;;4.20;;
1725;SDS011;41776;48.260;8.928;2023-05-07T13:05:26;6.97;;;4.50;;
1725;SDS011;41776;48.260;8.928;2023-05-07T13:07:53;8.30;;;4.63;;
1725;SDS011;41776;48.260;8.928;2023-05-07T13:10:19;7.15;;;4.30;;
1725;SDS011;41776;48.260;8.928;2023-05-07T13:12:47;5.95;;;3.42;;
1725;SDS011;41776;48.260;8.928;2023-05-07T13:15:13;11.80;;;3.50;;
1725;SDS011;41776;48.260;8.928;2023-05-07T13:17:41;6.38;;;3.45;;
1725;SDS011;41776;48.260;8.928;2023-05-07T13:20:08;6.40;;;2.83;;
1725;SDS011;41776;48.260;8.928;2023-05-07T13:22:36;6.63;;;2.70;;
1725;SDS011;41776;48.260;8.928;2023-05-07T13:25:03;4.10;;;2.00;;
1725;SDS011;41776;48.260;8.928;2023-05-07T13:27:29;4.53;;;1.98;;
1725;SDS011;41776;48.260;8.928;2023-05-07T13:29:56;5.93;;;2.40;;
1725;SDS011;41776;48.260;8.928;2023-05-07T13:32:23;4.78;;;2.40;;
1725;SDS011;41776;48.260;8.928;2023-05-07T13:34:51;3.78;;;2.40;;
1725;SDS011;41776;48.260;8.928;2023-05-07T13:37:17;7.10;;;2.80;;
1725;SDS011;41776;48.260;8.928;2023-05-07T13:39:43;6.22;;;2.47;;
1725;SDS011;41776;48.260;8.928;2023-05-07T13:42:10;10.88;;;2.72;;
1725;SDS011;41776;48.260;8.928;2023-05-07T13:44:37;6.25;;;2.92;;
1725;SDS011;41776;48.260;8.928;2023-05-07T13:47:03;4.72;;;2.72;;
1725;SDS011;41776;48.260;8.928;2023-05-07T13:49:30;5.60;;;2.50;;
1725;SDS011;41776;48.260;8.928;2023-05-07T13:51:58;5.30;;;2.72;;
1725;SDS011;41776;48.260;8.928;2023-05-07T13:54:24;4.60;;;2.63;;
1725;SDS011;41776;48.260;8.928;2023-05-07T13:56:50;4.03;;;2.72;;
1725;SDS011;41776;48.260;8.928;2023-05-07T13:59:17;4.88;;;3.15;;
1725;SDS011;41776;48.260;8.928;2023-05-07T14:01:43;5.32;;;3.15;;
1725;SDS011;41776;48.260;8.928;2023-05-07T14:04:10;4.07;;;2.65;;
1725;SDS011;41776;48.260;8.928;2023-05-07T14:06:36;7.70;;;3.67;;
1725;SDS011;41776;48.260;8.928;2023-05-07T14:09:05;5.45;;;3.30;;
1725;SDS011;41776;48.260;8.928;2023-05-07T14:11:31;4.53;;;2.88;;
1725;SDS011;41776;48.260;8.928;2023-05-07T14:13:58;6.72;;;2.78;;
1725;SDS011;41776;48.260;8.928;2023-05-07T14:16:24;3.78;;;2.33;;
1725;SDS011;41776;48.260;8.928;2023-05-07T14:18:51;4.82;;;2.67;;
1725;SDS011;41776;48.260;8.928;2023-05-07T14:21:17;5.38;;;2.10;;
1725;SDS011;41776;48.260;8.928;2023-05-07T14:23:44;5.78;;;2.72;;
1725;SDS011;41776;48.260;8.928;2023-05-07T14:26:12;2.15;;;1.77;;
1725;SDS011;41776;48.260;8.928;2023-05-07T14:28:38;3.80;;;2.10;;
1725;SDS011;41776;48.260;8.928;2023-05-07T14:31:07;4.93;;;2.40;;
1725;SDS011;41776;48.260;8.928;2023-05-07T14:33:34;2.97;;;1.67;;
1725;SDS011;41776;48.260;8.928;2023-05-07T14:36:01;6.47;;;2.50;;
1725;SDS011;41776;48.260;8.928;2023-05-07T14:38:28;2.97;;;1.83;;
1725;SDS011;41776;48.260;8.928;2023-05-07T14:40:55;1.30;;;1.02;;
1725;SDS011;41776;48.260;8.928;2023-05-07T14:43:23;3.40;;;1.25;;
1725;SDS011;41776;48.260;8.928;2023-05-07T14:45:49;3.10;;;1.10;;
1725;SDS011;41776;48.260;8.928;2023-05-07T14:48:16;3.22;;;0.85;;
1725;SDS011;41776;48.260;8.928;2023-05-07T14:50:42;0.75;;;0.75;;
1725;SDS011;41776;48.260;8.928;2023-05-07T14:53:09;1.50;;;1.00;;
1725;SDS011;41776;48.260;8.928;2023-05-07T14:55:35;3.67;;;0.90;;
1725;SDS011;41776;48.260;8.928;2023-05-07T14:58:02;1.83;;;1.10;;
1725;SDS011;41776;48.260;8.928;2023-05-07T15:00:29;2.33;;;1.20;;
1725;SDS011;41776;48.260;8.928;2023-05-07T15:03:03;2.97;;;1.27;;
1725;SDS011;41776;48.260;8.928;2023-05-07T15:05:31;4.13;;;1.60;;
1725;SDS011;41776;48.260;8.928;2023-05-07T15:07:58;2.05;;;1.35;;
1725;SDS011;41776;48.260;8.928;2023-05-07T15:10:24;2.28;;;1.60;;
1725;SDS011;41776;48.260;8.928;2023-05-07T15:12:51;2.10;;;1.40;;
1725;SDS011;41776;48.260;8.928;2023-05-07T15:15:18;2.25;;;1.50;;